sensor_id;sensor_type;location;lat;lon;timestamp;P1;durP1;ratioP1;P2;durP2;ratioP2
58302;SDS011;44109;52.398;7.024;2024-03-08T00:01:01;41.75;;;26.00;;
58302;SDS011;44109;52.398;7.024;2024-03-08T00:03:29;41.20;;;22.75;;
58302;SDS011;44109;52.398;7.024;2024-03-08T00:05:58;37.80;;;21.55;;
58302;SDS011;44109;52.398;7.024;2024-03-08T00:08:26;38.55;;;22.85;;
58302;SDS011;44109;52.398;7.024;2024-03-08T00:10:58;40.17;;;21.92;;
58302;SDS011;44109;52.398;7.024;2024-03-08T00:13:26;40.60;;;22.20;;
58302;SDS011;44109;52.398;7.024;2024-03-08T00:15:53;41.25;;;23.13;;
58302;SDS011;44109;52.398;7.024;2024-03-08T00:18:23;35.22;;;20.30;;
58302;SDS011;44109;52.398;7.024;2024-03-08T00:20:51;37.38;;;21.38;;
58302;SDS011;44109;52.398;7.024;2024-03-08T00:23:18;36.85;;;21.30;;
58302;SDS011;44109;52.398;7.024;2024-03-08T00:25:46;43.00;;;23.50;;
58302;SDS011;44109;52.398;7.024;2024-03-08T00:28:15;41.88;;;22.08;;
58302;SDS011;44109;52.398;7.024;2024-03-08T00:30:44;38.13;;;23.38;;
58302;SDS011;44109;52.398;7.024;2024-03-08T00:33:12;41.15;;;21.88;;
58302;SDS011;44109;52.398;7.024;2024-03-08T00:35:40;37.45;;;22.27;;
58302;SDS011;44109;52.398;7.024;2024-03-08T00:38:07;40.80;;;24.35;;
58302;SDS011;44109;52.398;7.024;2024-03-08T00:40:35;41.15;;;22.50;;
58302;SDS011;44109;52.398;7.024;2024-03-08T00:43:03;38.63;;;22.95;;
58302;SDS011;44109;52.398;7.024;2024-03-08T00:45:32;42.08;;;23.40;;
58302;SDS011;44109;52.398;7.024;2024-03-08T00:47:59;41.38;;;23.77;;
58302;SDS011;44109;52.398;7.024;2024-03-08T00:50:27;38.10;;;22.73;;
58302;SDS011;44109;52.398;7.024;2024-03-08T00:52:55;40.72;;;24.58;;
58302;SDS011;44109;52.398;7.024;2024-03-08T00:55:23;39.55;;;23.23;;
58302;SDS011;44109;52.398;7.024;2024-03-08T00:57:50;41.40;;;23.10;;
58302;SDS011;44109;52.398;7.024;2024-03-08T01:00:19;40.20;;;21.88;;
58302;SDS011;44109;52.398;7.024;2024-03-08T01:02:49;44.65;;;23.75;;
58302;SDS011;44109;52.398;7.024;2024-03-08T01:05:17;42.90;;;23.35;;
58302;SDS011;44109;52.398;7.024;2024-03-08T01:07:57;41.45;;;22.13;;
58302;SDS011;44109;52.398;7.024;2024-03-08T01:10:25;35.58;;;22.55;;
58302;SDS011;44109;52.398;7.024;2024-03-08T01:12:53;44.00;;;26.15;;
58302;SDS011;44109;52.398;7.024;2024-03-08T01:15:22;40.55;;;26.13;;
58302;SDS011;44109;52.398;7.024;2024-03-08T01:17:52;40.97;;;24.80;;
58302;SDS011;44109;52.398;7.024;2024-03-08T01:20:20;37.72;;;23.77;;
58302;SDS011;44109;52.398;7.024;2024-03-08T01:22:47;39.80;;;23.45;;
58302;SDS011;44109;52.398;7.024;2024-03-08T01:25:15;40.15;;;24.88;;
58302;SDS011;44109;52.398;7.024;2024-03-08T01:27:43;40.65;;;24.83;;
58302;SDS011;44109;52.398;7.024;2024-03-08T01:30:10;39.13;;;22.80;;
58302;SDS011;44109;52.398;7.024;2024-03-08T01:32:38;42.78;;;24.88;;
58302;SDS011;44109;52.398;7.024;2024-03-08T01:35:07;45.30;;;24.50;;
58302;SDS011;44109;52.398;7.024;2024-03-08T01:37:36;44.13;;;25.33;;
58302;SDS011;44109;52.398;7.024;2024-03-08T01:40:04;51.75;;;29.13;;
58302;SDS011;44109;52.398;7.024;2024-03-08T01:42:34;51.72;;;28.35;;
58302;SDS011;44109;52.398;7.024;2024-03-08T01:45:04;50.05;;;27.33;;
58302;SDS011;44109;52.398;7.024;2024-03-08T01:47:33;41.92;;;26.05;;
58302;SDS011;44109;52.398;7.024;2024-03-08T01:50:01;42.42;;;25.33;;
58302;SDS011;44109;52.398;7.024;2024-03-08T01:52:33;46.30;;;28.02;;
58302;SDS011;44109;52.398;7.024;2024-03-08T01:55:03;38.08;;;22.00;;
58302;SDS011;44109;52.398;7.024;2024-03-08T01:57:33;44.03;;;26.90;;
58302;SDS011;44109;52.398;7.024;2024-03-08T02:00:04;42.28;;;25.17;;
58302;SDS011;44109;52.398;7.024;2024-03-08T02:02:36;42.47;;;26.67;;
58302;SDS011;44109;52.398;7.024;2024-03-08T02:05:04;43.78;;;25.65;;
58302;SDS011;44109;52.398;7.024;2024-03-08T02:07:35;48.42;;;29.88;;
58302;SDS011;44109;52.398;7.024;2024-03-08T02:10:03;44.67;;;26.85;;
58302;SDS011;44109;52.398;7.024;2024-03-08T02:12:32;40.08;;;24.80;;
58302;SDS011;44109;52.398;7.024;2024-03-08T02:15:00;42.33;;;25.73;;
58302;SDS011;44109;52.398;7.024;2024-03-08T02:17:28;42.33;;;25.08;;
58302;SDS011;44109;52.398;7.024;2024-03-08T02:19:56;37.80;;;23.77;;
58302;SDS011;44109;52.398;7.024;2024-03-08T02:22:25;41.53;;;26.52;;
58302;SDS011;44109;52.398;7.024;2024-03-08T02:24:53;40.72;;;24.60;;
58302;SDS011;44109;52.398;7.024;2024-03-08T02:27:23;39.05;;;23.33;;
58302;SDS011;44109;52.398;7.024;2024-03-08T02:29:51;37.78;;;23.02;;
58302;SDS011;44109;52.398;7.024;2024-03-08T02:32:22;45.80;;;27.92;;
58302;SDS011;44109;52.398;7.024;2024-03-08T02:34:50;43.55;;;25.75;;
58302;SDS011;44109;52.398;7.024;2024-03-08T02:37:18;43.58;;;26.02;;
58302;SDS011;44109;52.398;7.024;2024-03-08T02:39:47;44.60;;;24.60;;
58302;SDS011;44109;52.398;7.024;2024-03-08T02:42:14;49.90;;;27.00;;
58302;SDS011;44109;52.398;7.024;2024-03-08T02:44:42;43.03;;;25.75;;
58302;SDS011;44109;52.398;7.024;2024-03-08T02:47:10;44.60;;;25.38;;
58302;SDS011;44109;52.398;7.024;2024-03-08T02:49:38;38.92;;;24.52;;
58302;SDS011;44109;52.398;7.024;2024-03-08T02:52:06;43.13;;;26.08;;
58302;SDS011;44109;52.398;7.024;2024-03-08T02:54:33;39.40;;;25.25;;
58302;SDS011;44109;52.398;7.024;2024-03-08T02:57:04;41.33;;;25.58;;
58302;SDS011;44109;52.398;7.024;2024-03-08T02:59:33;46.38;;;27.58;;
58302;SDS011;44109;52.398;7.024;2024-03-08T03:02:01;40.78;;;24.77;;
58302;SDS011;44109;52.398;7.024;2024-03-08T03:04:29;44.03;;;27.30;;
58302;SDS011;44109;52.398;7.024;2024-03-08T03:06:56;43.53;;;26.77;;
58302;SDS011;44109;52.398;7.024;2024-03-08T03:09:24;43.85;;;26.70;;
58302;SDS011;44109;52.398;7.024;2024-03-08T03:11:53;46.97;;;29.38;;
58302;SDS011;44109;52.398;7.024;2024-03-08T03:14:22;39.70;;;24.25;;
58302;SDS011;44109;52.398;7.024;2024-03-08T03:16:52;45.47;;;28.30;;
58302;SDS011;44109;52.398;7.024;2024-03-08T03:19:20;45.10;;;26.88;;
58302;SDS011;44109;52.398;7.024;2024-03-08T03:21:48;42.47;;;26.20;;
58302;SDS011;44109;52.398;7.024;2024-03-08T03:24:15;43.90;;;28.13;;
58302;SDS011;44109;52.398;7.024;2024-03-08T03:26:43;45.65;;;27.83;;
58302;SDS011;44109;52.398;7.024;2024-03-08T03:29:12;42.70;;;27.30;;
58302;SDS011;44109;52.398;7.024;2024-03-08T03:31:41;48.67;;;29.70;;
58302;SDS011;44109;52.398;7.024;2024-03-08T03:34:08;50.83;;;31.63;;
58302;SDS011;44109;52.398;7.024;2024-03-08T03:36:36;49.65;;;30.10;;
58302;SDS011;44109;52.398;7.024;2024-03-08T03:39:08;45.17;;;27.40;;
58302;SDS011;44109;52.398;7.024;2024-03-08T03:41:38;39.60;;;24.20;;
58302;SDS011;44109;52.398;7.024;2024-03-08T03:44:06;46.95;;;28.98;;
58302;SDS011;44109;52.398;7.024;2024-03-08T03:46:33;40.30;;;25.30;;
58302;SDS011;44109;52.398;7.024;2024-03-08T03:49:03;47.13;;;26.92;;
58302;SDS011;44109;52.398;7.024;2024-03-08T03:51:30;45.72;;;28.70;;
58302;SDS011;44109;52.398;7.024;2024-03-08T03:53:58;49.17;;;27.65;;
58302;SDS011;44109;52.398;7.024;2024-03-08T03:56:25;46.75;;;26.75;;
58302;SDS011;44109;52.398;7.024;2024-03-08T03:58:53;47.15;;;26.23;;
58302;SDS011;44109;52.398;7.024;2024-03-08T04:01:21;45.53;;;27.77;;
58302;SDS011;44109;52.398;7.024;2024-03-08T04:03:49;45.85;;;29.55;;
58302;SDS011;44109;52.398;7.024;2024-03-08T04:06:18;46.30;;;30.13;;
58302;SDS011;44109;52.398;7.024;2024-03-08T04:08:46;44.95;;;28.27;;
58302;SDS011;44109;52.398;7.024;2024-03-08T04:11:14;46.60;;;26.15;;
58302;SDS011;44109;52.398;7.024;2024-03-08T04:13:42;45.33;;;27.00;;
58302;SDS011;44109;52.398;7.024;2024-03-08T04:16:10;44.22;;;27.80;;
58302;SDS011;44109;52.398;7.024;2024-03-08T04:18:38;49.33;;;29.67;;
58302;SDS011;44109;52.398;7.024;2024-03-08T04:21:05;45.25;;;27.30;;
58302;SDS011;44109;52.398;7.024;2024-03-08T04:23:35;48.88;;;28.85;;
58302;SDS011;44109;52.398;7.024;2024-03-08T04:26:02;45.75;;;27.20;;
58302;SDS011;44109;52.398;7.024;2024-03-08T04:28:32;45.83;;;29.50;;
58302;SDS011;44109;52.398;7.024;2024-03-08T04:30:59;41.80;;;26.88;;
58302;SDS011;44109;52.398;7.024;2024-03-08T04:33:27;44.30;;;27.90;;
58302;SDS011;44109;52.398;7.024;2024-03-08T04:35:55;45.30;;;27.98;;
58302;SDS011;44109;52.398;7.024;2024-03-08T04:38:22;44.67;;;26.90;;
58302;SDS011;44109;52.398;7.024;2024-03-08T04:40:52;48.20;;;29.05;;
58302;SDS011;44109;52.398;7.024;2024-03-08T04:43:19;46.53;;;28.83;;
58302;SDS011;44109;52.398;7.024;2024-03-08T04:45:47;45.10;;;25.60;;
58302;SDS011;44109;52.398;7.024;2024-03-08T04:48:15;46.08;;;28.10;;
58302;SDS011;44109;52.398;7.024;2024-03-08T04:50:42;41.85;;;27.38;;
58302;SDS011;44109;52.398;7.024;2024-03-08T04:53:11;45.45;;;26.42;;
58302;SDS011;44109;52.398;7.024;2024-03-08T04:55:39;46.00;;;25.35;;
58302;SDS011;44109;52.398;7.024;2024-03-08T04:58:08;40.75;;;25.75;;
58302;SDS011;44109;52.398;7.024;2024-03-08T05:00:36;47.47;;;28.65;;
58302;SDS011;44109;52.398;7.024;2024-03-08T05:03:04;47.95;;;27.95;;
58302;SDS011;44109;52.398;7.024;2024-03-08T05:05:31;42.17;;;27.48;;
58302;SDS011;44109;52.398;7.024;2024-03-08T05:07:59;44.22;;;26.35;;
58302;SDS011;44109;52.398;7.024;2024-03-08T05:10:28;46.63;;;27.95;;
58302;SDS011;44109;52.398;7.024;2024-03-08T05:12:56;41.70;;;27.05;;
58302;SDS011;44109;52.398;7.024;2024-03-08T05:15:25;47.55;;;28.60;;
58302;SDS011;44109;52.398;7.024;2024-03-08T05:17:52;42.80;;;26.13;;
58302;SDS011;44109;52.398;7.024;2024-03-08T05:20:21;46.92;;;27.38;;
58302;SDS011;44109;52.398;7.024;2024-03-08T05:22:49;44.53;;;27.75;;
58302;SDS011;44109;52.398;7.024;2024-03-08T05:25:17;48.22;;;28.17;;
58302;SDS011;44109;52.398;7.024;2024-03-08T05:27:45;43.35;;;27.77;;
58302;SDS011;44109;52.398;7.024;2024-03-08T05:30:13;47.53;;;28.85;;
58302;SDS011;44109;52.398;7.024;2024-03-08T05:32:42;51.50;;;30.48;;
58302;SDS011;44109;52.398;7.024;2024-03-08T05:35:11;45.13;;;26.50;;
58302;SDS011;44109;52.398;7.024;2024-03-08T05:37:42;53.42;;;32.05;;
58302;SDS011;44109;52.398;7.024;2024-03-08T05:40:10;46.90;;;28.40;;
58302;SDS011;44109;52.398;7.024;2024-03-08T05:42:38;47.65;;;28.50;;
58302;SDS011;44109;52.398;7.024;2024-03-08T05:45:06;46.45;;;29.05;;
58302;SDS011;44109;52.398;7.024;2024-03-08T05:47:35;48.50;;;29.50;;
58302;SDS011;44109;52.398;7.024;2024-03-08T05:50:05;46.17;;;28.73;;
58302;SDS011;44109;52.398;7.024;2024-03-08T05:52:36;52.97;;;31.25;;
58302;SDS011;44109;52.398;7.024;2024-03-08T05:55:05;48.22;;;28.83;;
58302;SDS011;44109;52.398;7.024;2024-03-08T05:57:35;47.20;;;29.60;;
58302;SDS011;44109;52.398;7.024;2024-03-08T06:00:06;49.20;;;28.70;;
58302;SDS011;44109;52.398;7.024;2024-03-08T06:02:35;51.03;;;29.92;;
58302;SDS011;44109;52.398;7.024;2024-03-08T06:05:09;54.35;;;32.47;;
58302;SDS011;44109;52.398;7.024;2024-03-08T06:07:37;49.22;;;29.90;;
58302;SDS011;44109;52.398;7.024;2024-03-08T06:10:07;53.08;;;30.83;;
58302;SDS011;44109;52.398;7.024;2024-03-08T06:12:38;51.30;;;30.23;;
58302;SDS011;44109;52.398;7.024;2024-03-08T06:15:07;48.47;;;29.63;;
58302;SDS011;44109;52.398;7.024;2024-03-08T06:17:40;51.20;;;30.02;;
58302;SDS011;44109;52.398;7.024;2024-03-08T06:20:09;49.20;;;28.95;;
58302;SDS011;44109;52.398;7.024;2024-03-08T06:22:39;48.17;;;29.23;;
58302;SDS011;44109;52.398;7.024;2024-03-08T06:25:07;44.72;;;26.13;;
58302;SDS011;44109;52.398;7.024;2024-03-08T06:27:36;48.92;;;30.38;;
58302;SDS011;44109;52.398;7.024;2024-03-08T06:30:05;42.67;;;26.83;;
58302;SDS011;44109;52.398;7.024;2024-03-08T06:32:35;50.70;;;28.33;;
58302;SDS011;44109;52.398;7.024;2024-03-08T06:35:03;45.63;;;27.08;;
58302;SDS011;44109;52.398;7.024;2024-03-08T06:37:34;46.13;;;26.08;;
58302;SDS011;44109;52.398;7.024;2024-03-08T06:40:02;45.30;;;25.98;;
58302;SDS011;44109;52.398;7.024;2024-03-08T06:42:30;45.38;;;28.13;;
58302;SDS011;44109;52.398;7.024;2024-03-08T06:45:00;47.08;;;27.77;;
58302;SDS011;44109;52.398;7.024;2024-03-08T06:47:30;42.33;;;26.08;;
58302;SDS011;44109;52.398;7.024;2024-03-08T06:50:00;49.88;;;29.85;;
58302;SDS011;44109;52.398;7.024;2024-03-08T06:52:27;43.15;;;24.33;;
58302;SDS011;44109;52.398;7.024;2024-03-08T06:54:57;46.40;;;27.88;;
58302;SDS011;44109;52.398;7.024;2024-03-08T06:57:24;46.55;;;27.92;;
58302;SDS011;44109;52.398;7.024;2024-03-08T06:59:52;43.55;;;26.38;;
58302;SDS011;44109;52.398;7.024;2024-03-08T07:02:20;48.60;;;28.40;;
58302;SDS011;44109;52.398;7.024;2024-03-08T07:04:50;45.17;;;28.08;;
58302;SDS011;44109;52.398;7.024;2024-03-08T07:07:18;43.50;;;28.90;;
58302;SDS011;44109;52.398;7.024;2024-03-08T07:09:47;46.75;;;27.58;;
58302;SDS011;44109;52.398;7.024;2024-03-08T07:12:17;45.05;;;27.52;;
58302;SDS011;44109;52.398;7.024;2024-03-08T07:14:46;48.88;;;29.42;;
58302;SDS011;44109;52.398;7.024;2024-03-08T07:17:14;47.28;;;27.35;;
58302;SDS011;44109;52.398;7.024;2024-03-08T07:19:42;47.33;;;28.48;;
58302;SDS011;44109;52.398;7.024;2024-03-08T07:22:10;50.95;;;29.50;;
58302;SDS011;44109;52.398;7.024;2024-03-08T07:24:38;56.58;;;34.50;;
58302;SDS011;44109;52.398;7.024;2024-03-08T07:27:23;58.20;;;35.90;;
58302;SDS011;44109;52.398;7.024;2024-03-08T07:29:51;46.88;;;30.35;;
58302;SDS011;44109;52.398;7.024;2024-03-08T07:32:18;53.10;;;31.20;;
58302;SDS011;44109;52.398;7.024;2024-03-08T07:34:47;54.80;;;33.35;;
58302;SDS011;44109;52.398;7.024;2024-03-08T07:37:16;49.42;;;33.22;;
58302;SDS011;44109;52.398;7.024;2024-03-08T07:39:46;46.75;;;29.50;;
58302;SDS011;44109;52.398;7.024;2024-03-08T07:42:13;47.75;;;30.08;;
58302;SDS011;44109;52.398;7.024;2024-03-08T07:44:44;70.30;;;41.10;;
58302;SDS011;44109;52.398;7.024;2024-03-08T07:47:12;79.80;;;46.22;;
58302;SDS011;44109;52.398;7.024;2024-03-08T07:49:40;54.00;;;30.48;;
58302;SDS011;44109;52.398;7.024;2024-03-08T07:52:07;51.50;;;28.60;;
58302;SDS011;44109;52.398;7.024;2024-03-08T07:54:35;65.57;;;38.67;;
58302;SDS011;44109;52.398;7.024;2024-03-08T07:57:03;70.28;;;41.17;;
58302;SDS011;44109;52.398;7.024;2024-03-08T07:59:32;46.67;;;28.85;;
58302;SDS011;44109;52.398;7.024;2024-03-08T08:02:02;48.67;;;28.42;;
58302;SDS011;44109;52.398;7.024;2024-03-08T08:04:30;53.88;;;33.58;;
58302;SDS011;44109;52.398;7.024;2024-03-08T08:06:58;52.15;;;29.98;;
58302;SDS011;44109;52.398;7.024;2024-03-08T08:09:26;45.42;;;29.15;;
58302;SDS011;44109;52.398;7.024;2024-03-08T08:12:00;39.15;;;26.48;;
58302;SDS011;44109;52.398;7.024;2024-03-08T08:14:29;44.72;;;29.48;;
58302;SDS011;44109;52.398;7.024;2024-03-08T08:16:56;43.90;;;27.05;;
58302;SDS011;44109;52.398;7.024;2024-03-08T08:19:30;48.80;;;28.48;;
58302;SDS011;44109;52.398;7.024;2024-03-08T08:21:59;41.47;;;28.27;;
58302;SDS011;44109;52.398;7.024;2024-03-08T08:24:27;41.20;;;25.75;;
58302;SDS011;44109;52.398;7.024;2024-03-08T08:26:55;41.88;;;25.63;;
58302;SDS011;44109;52.398;7.024;2024-03-08T08:29:23;40.85;;;27.70;;
58302;SDS011;44109;52.398;7.024;2024-03-08T08:31:51;44.45;;;28.55;;
58302;SDS011;44109;52.398;7.024;2024-03-08T08:34:19;34.20;;;22.95;;
58302;SDS011;44109;52.398;7.024;2024-03-08T08:36:51;40.53;;;25.38;;
58302;SDS011;44109;52.398;7.024;2024-03-08T08:39:18;44.63;;;28.23;;
58302;SDS011;44109;52.398;7.024;2024-03-08T08:41:48;39.45;;;25.65;;
58302;SDS011;44109;52.398;7.024;2024-03-08T08:44:16;33.38;;;22.65;;
58302;SDS011;44109;52.398;7.024;2024-03-08T08:46:44;36.83;;;26.38;;
58302;SDS011;44109;52.398;7.024;2024-03-08T08:49:11;41.92;;;25.38;;
58302;SDS011;44109;52.398;7.024;2024-03-08T08:51:40;38.53;;;26.38;;
58302;SDS011;44109;52.398;7.024;2024-03-08T08:54:09;39.88;;;24.98;;
58302;SDS011;44109;52.398;7.024;2024-03-08T08:56:37;41.50;;;24.90;;
58302;SDS011;44109;52.398;7.024;2024-03-08T08:59:05;37.00;;;24.10;;
58302;SDS011;44109;52.398;7.024;2024-03-08T09:01:33;33.92;;;21.92;;
58302;SDS011;44109;52.398;7.024;2024-03-08T09:04:01;35.83;;;24.98;;
58302;SDS011;44109;52.398;7.024;2024-03-08T09:06:29;36.38;;;23.42;;
58302;SDS011;44109;52.398;7.024;2024-03-08T09:08:57;41.45;;;25.38;;
58302;SDS011;44109;52.398;7.024;2024-03-08T09:11:26;43.97;;;29.55;;
58302;SDS011;44109;52.398;7.024;2024-03-08T09:13:53;43.08;;;28.08;;
58302;SDS011;44109;52.398;7.024;2024-03-08T09:16:21;37.45;;;23.58;;
58302;SDS011;44109;52.398;7.024;2024-03-08T09:18:49;43.05;;;27.92;;
58302;SDS011;44109;52.398;7.024;2024-03-08T09:21:16;42.00;;;26.73;;
58302;SDS011;44109;52.398;7.024;2024-03-08T09:23:44;36.92;;;24.75;;
58302;SDS011;44109;52.398;7.024;2024-03-08T09:26:11;39.05;;;26.98;;
58302;SDS011;44109;52.398;7.024;2024-03-08T09:28:42;38.08;;;25.95;;
58302;SDS011;44109;52.398;7.024;2024-03-08T09:31:11;37.65;;;24.52;;
58302;SDS011;44109;52.398;7.024;2024-03-08T09:33:38;33.03;;;22.10;;
58302;SDS011;44109;52.398;7.024;2024-03-08T09:36:06;36.90;;;26.20;;
58302;SDS011;44109;52.398;7.024;2024-03-08T09:38:34;38.25;;;26.33;;
58302;SDS011;44109;52.398;7.024;2024-03-08T09:41:02;39.17;;;25.70;;
58302;SDS011;44109;52.398;7.024;2024-03-08T09:43:30;39.28;;;27.77;;
58302;SDS011;44109;52.398;7.024;2024-03-08T09:45:59;36.35;;;23.38;;
58302;SDS011;44109;52.398;7.024;2024-03-08T09:48:27;38.63;;;25.60;;
58302;SDS011;44109;52.398;7.024;2024-03-08T09:50:55;34.10;;;23.23;;
58302;SDS011;44109;52.398;7.024;2024-03-08T09:53:23;37.28;;;24.27;;
58302;SDS011;44109;52.398;7.024;2024-03-08T09:55:51;35.60;;;23.48;;
58302;SDS011;44109;52.398;7.024;2024-03-08T09:58:18;37.13;;;25.30;;
58302;SDS011;44109;52.398;7.024;2024-03-08T10:01:18;35.03;;;23.08;;
58302;SDS011;44109;52.398;7.024;2024-03-08T10:03:46;37.97;;;24.83;;
58302;SDS011;44109;52.398;7.024;2024-03-08T10:06:16;36.85;;;25.75;;
58302;SDS011;44109;52.398;7.024;2024-03-08T10:08:49;34.25;;;23.67;;
58302;SDS011;44109;52.398;7.024;2024-03-08T10:11:17;36.50;;;23.65;;
58302;SDS011;44109;52.398;7.024;2024-03-08T10:13:45;39.38;;;24.52;;
58302;SDS011;44109;52.398;7.024;2024-03-08T10:16:16;39.92;;;26.17;;
58302;SDS011;44109;52.398;7.024;2024-03-08T10:18:45;40.25;;;27.08;;
58302;SDS011;44109;52.398;7.024;2024-03-08T10:21:13;44.75;;;28.17;;
58302;SDS011;44109;52.398;7.024;2024-03-08T10:23:42;32.83;;;23.00;;
58302;SDS011;44109;52.398;7.024;2024-03-08T10:26:11;34.90;;;24.10;;
58302;SDS011;44109;52.398;7.024;2024-03-08T10:28:41;37.50;;;25.33;;
58302;SDS011;44109;52.398;7.024;2024-03-08T10:31:10;42.20;;;25.92;;
58302;SDS011;44109;52.398;7.024;2024-03-08T10:33:39;38.60;;;25.05;;
58302;SDS011;44109;52.398;7.024;2024-03-08T10:36:07;35.85;;;23.50;;
58302;SDS011;44109;52.398;7.024;2024-03-08T10:38:36;35.17;;;23.63;;
58302;SDS011;44109;52.398;7.024;2024-03-08T10:41:06;37.22;;;24.33;;
58302;SDS011;44109;52.398;7.024;2024-03-08T10:43:41;37.78;;;24.95;;
58302;SDS011;44109;52.398;7.024;2024-03-08T10:46:35;30.20;;;21.00;;
58302;SDS011;44109;52.398;7.024;2024-03-08T10:49:23;34.15;;;23.45;;
58302;SDS011;44109;52.398;7.024;2024-03-08T10:52:01;33.20;;;22.48;;
58302;SDS011;44109;52.398;7.024;2024-03-08T10:54:31;37.33;;;22.08;;
58302;SDS011;44109;52.398;7.024;2024-03-08T10:57:05;37.80;;;25.25;;
58302;SDS011;44109;52.398;7.024;2024-03-08T10:59:36;36.22;;;24.02;;
58302;SDS011;44109;52.398;7.024;2024-03-08T11:02:05;34.53;;;24.88;;
58302;SDS011;44109;52.398;7.024;2024-03-08T11:04:34;34.00;;;23.58;;
58302;SDS011;44109;52.398;7.024;2024-03-08T11:07:04;33.92;;;23.02;;
58302;SDS011;44109;52.398;7.024;2024-03-08T11:09:34;36.72;;;25.38;;
58302;SDS011;44109;52.398;7.024;2024-03-08T11:12:20;34.75;;;24.80;;
58302;SDS011;44109;52.398;7.024;2024-03-08T11:14:55;32.13;;;21.95;;
58302;SDS011;44109;52.398;7.024;2024-03-08T11:17:39;35.53;;;24.50;;
58302;SDS011;44109;52.398;7.024;2024-03-08T11:20:14;32.47;;;22.27;;
58302;SDS011;44109;52.398;7.024;2024-03-08T11:22:47;35.30;;;22.75;;
58302;SDS011;44109;52.398;7.024;2024-03-08T11:25:32;35.00;;;25.58;;
58302;SDS011;44109;52.398;7.024;2024-03-08T11:28:11;31.67;;;20.40;;
58302;SDS011;44109;52.398;7.024;2024-03-08T11:30:43;34.90;;;23.83;;
58302;SDS011;44109;52.398;7.024;2024-03-08T11:33:14;36.25;;;24.52;;
58302;SDS011;44109;52.398;7.024;2024-03-08T11:35:45;33.35;;;22.38;;
58302;SDS011;44109;52.398;7.024;2024-03-08T11:38:13;32.70;;;22.45;;
58302;SDS011;44109;52.398;7.024;2024-03-08T11:40:42;34.58;;;23.27;;
58302;SDS011;44109;52.398;7.024;2024-03-08T11:43:15;35.05;;;22.83;;
58302;SDS011;44109;52.398;7.024;2024-03-08T11:45:43;36.10;;;23.98;;
58302;SDS011;44109;52.398;7.024;2024-03-08T11:48:11;34.10;;;22.88;;
58302;SDS011;44109;52.398;7.024;2024-03-08T11:50:41;32.63;;;21.08;;
58302;SDS011;44109;52.398;7.024;2024-03-08T11:53:10;36.70;;;25.95;;
58302;SDS011;44109;52.398;7.024;2024-03-08T11:55:39;35.10;;;24.33;;
58302;SDS011;44109;52.398;7.024;2024-03-08T11:58:08;37.58;;;26.38;;
58302;SDS011;44109;52.398;7.024;2024-03-08T12:00:37;32.92;;;23.42;;
58302;SDS011;44109;52.398;7.024;2024-03-08T12:03:05;31.10;;;19.67;;
58302;SDS011;44109;52.398;7.024;2024-03-08T12:05:35;33.08;;;22.25;;
58302;SDS011;44109;52.398;7.024;2024-03-08T12:08:04;35.25;;;22.23;;
58302;SDS011;44109;52.398;7.024;2024-03-08T12:10:36;33.25;;;21.75;;
58302;SDS011;44109;52.398;7.024;2024-03-08T12:13:03;31.25;;;21.90;;
58302;SDS011;44109;52.398;7.024;2024-03-08T12:15:39;37.63;;;27.40;;
58302;SDS011;44109;52.398;7.024;2024-03-08T12:18:07;30.98;;;20.65;;
58302;SDS011;44109;52.398;7.024;2024-03-08T12:20:36;35.00;;;23.60;;
58302;SDS011;44109;52.398;7.024;2024-03-08T12:23:05;29.35;;;20.08;;
58302;SDS011;44109;52.398;7.024;2024-03-08T12:25:33;31.17;;;20.80;;
58302;SDS011;44109;52.398;7.024;2024-03-08T12:28:09;32.28;;;23.08;;
58302;SDS011;44109;52.398;7.024;2024-03-08T12:30:44;28.92;;;20.65;;
58302;SDS011;44109;52.398;7.024;2024-03-08T12:33:15;32.35;;;22.13;;
58302;SDS011;44109;52.398;7.024;2024-03-08T12:35:49;31.60;;;24.25;;
58302;SDS011;44109;52.398;7.024;2024-03-08T12:38:20;33.33;;;21.77;;
58302;SDS011;44109;52.398;7.024;2024-03-08T12:40:50;28.27;;;20.45;;
58302;SDS011;44109;52.398;7.024;2024-03-08T12:43:25;30.55;;;21.75;;
58302;SDS011;44109;52.398;7.024;2024-03-08T12:45:56;31.23;;;20.98;;
58302;SDS011;44109;52.398;7.024;2024-03-08T12:48:23;27.30;;;18.95;;
58302;SDS011;44109;52.398;7.024;2024-03-08T12:50:51;27.23;;;19.55;;
58302;SDS011;44109;52.398;7.024;2024-03-08T12:53:19;34.05;;;21.35;;
58302;SDS011;44109;52.398;7.024;2024-03-08T12:55:48;32.25;;;19.88;;
58302;SDS011;44109;52.398;7.024;2024-03-08T12:58:16;29.42;;;21.02;;
58302;SDS011;44109;52.398;7.024;2024-03-08T13:00:47;31.55;;;20.65;;
58302;SDS011;44109;52.398;7.024;2024-03-08T13:03:15;27.25;;;19.48;;
58302;SDS011;44109;52.398;7.024;2024-03-08T13:05:42;28.52;;;21.05;;
58302;SDS011;44109;52.398;7.024;2024-03-08T13:08:11;29.77;;;19.42;;
58302;SDS011;44109;52.398;7.024;2024-03-08T13:10:39;29.05;;;19.98;;
58302;SDS011;44109;52.398;7.024;2024-03-08T13:13:09;25.75;;;18.52;;
58302;SDS011;44109;52.398;7.024;2024-03-08T13:15:37;28.35;;;19.73;;
58302;SDS011;44109;52.398;7.024;2024-03-08T13:18:08;29.85;;;20.95;;
58302;SDS011;44109;52.398;7.024;2024-03-08T13:20:36;30.30;;;20.27;;
58302;SDS011;44109;52.398;7.024;2024-03-08T13:23:04;27.52;;;19.77;;
58302;SDS011;44109;52.398;7.024;2024-03-08T13:25:32;27.05;;;18.92;;
58302;SDS011;44109;52.398;7.024;2024-03-08T13:28:00;31.25;;;21.52;;
58302;SDS011;44109;52.398;7.024;2024-03-08T13:30:28;29.30;;;21.05;;
58302;SDS011;44109;52.398;7.024;2024-03-08T13:32:56;28.83;;;19.58;;
58302;SDS011;44109;52.398;7.024;2024-03-08T13:35:25;26.25;;;20.42;;
58302;SDS011;44109;52.398;7.024;2024-03-08T13:37:56;30.25;;;22.83;;
58302;SDS011;44109;52.398;7.024;2024-03-08T13:40:23;28.25;;;19.17;;
58302;SDS011;44109;52.398;7.024;2024-03-08T13:42:51;28.15;;;18.48;;
58302;SDS011;44109;52.398;7.024;2024-03-08T13:45:19;29.80;;;19.92;;
58302;SDS011;44109;52.398;7.024;2024-03-08T13:47:49;30.50;;;20.70;;
58302;SDS011;44109;52.398;7.024;2024-03-08T13:50:18;26.25;;;18.23;;
58302;SDS011;44109;52.398;7.024;2024-03-08T13:52:48;30.73;;;19.42;;
58302;SDS011;44109;52.398;7.024;2024-03-08T13:55:17;29.45;;;20.23;;
58302;SDS011;44109;52.398;7.024;2024-03-08T13:57:45;28.30;;;19.23;;
58302;SDS011;44109;52.398;7.024;2024-03-08T14:00:15;28.02;;;19.33;;
58302;SDS011;44109;52.398;7.024;2024-03-08T14:02:43;29.90;;;20.33;;
58302;SDS011;44109;52.398;7.024;2024-03-08T14:05:11;29.58;;;21.27;;
58302;SDS011;44109;52.398;7.024;2024-03-08T14:07:40;29.77;;;20.40;;
58302;SDS011;44109;52.398;7.024;2024-03-08T14:10:09;28.15;;;19.08;;
58302;SDS011;44109;52.398;7.024;2024-03-08T14:12:38;27.55;;;19.45;;
58302;SDS011;44109;52.398;7.024;2024-03-08T14:15:06;29.83;;;20.85;;
58302;SDS011;44109;52.398;7.024;2024-03-08T14:17:35;28.50;;;20.63;;
58302;SDS011;44109;52.398;7.024;2024-03-08T14:20:03;28.88;;;19.80;;
58302;SDS011;44109;52.398;7.024;2024-03-08T14:22:33;24.02;;;19.30;;
58302;SDS011;44109;52.398;7.024;2024-03-08T14:25:00;26.10;;;20.15;;
58302;SDS011;44109;52.398;7.024;2024-03-08T14:27:30;24.55;;;18.88;;
58302;SDS011;44109;52.398;7.024;2024-03-08T14:29:59;29.15;;;20.63;;
58302;SDS011;44109;52.398;7.024;2024-03-08T14:32:26;24.77;;;18.95;;